createdAt,value
2023-10-27T00:01:14.940Z,2.95
2023-10-27T00:03:46.891Z,5.40
2023-10-27T00:06:18.910Z,4.13
2023-10-27T00:08:50.865Z,3.35
2023-10-27T00:11:22.809Z,3.25
2023-10-27T00:13:56.222Z,6.18
2023-10-27T00:16:28.099Z,5.05
2023-10-27T00:19:00.121Z,3.97
2023-10-27T00:21:32.113Z,2.42
2023-10-27T00:24:04.356Z,2.55
2023-10-27T00:26:36.485Z,2.10
2023-10-27T00:29:08.557Z,1.88
2023-10-27T00:31:40.463Z,2.90
2023-10-27T00:34:12.618Z,4.20
2023-10-27T00:36:44.607Z,2.45
2023-10-27T00:39:16.456Z,1.92
2023-10-27T00:41:48.947Z,2.63
2023-10-27T00:44:21.002Z,2.97
2023-10-27T00:46:54.875Z,2.33
2023-10-27T00:49:29.260Z,2.42
2023-10-27T00:52:02.245Z,3.05
2023-10-27T00:54:35.935Z,1.58
2023-10-27T00:57:08.325Z,2.67
2023-10-27T00:59:40.375Z,2.20
2023-10-27T01:02:12.592Z,2.95
2023-10-27T01:04:46.951Z,3.35
2023-10-27T01:07:20.270Z,1.73
2023-10-27T01:09:53.017Z,2.22
2023-10-27T01:12:25.001Z,1.52
2023-10-27T01:14:57.020Z,5.28
2023-10-27T01:17:29.053Z,2.67
2023-10-27T01:20:02.323Z,1.85
2023-10-27T01:22:45.568Z,5.07
2023-10-27T01:25:18.238Z,4.25
2023-10-27T01:27:50.261Z,2.38
2023-10-27T01:30:22.287Z,2.85
2023-10-27T01:32:54.461Z,3.40
2023-10-27T01:35:26.606Z,4.43
2023-10-27T01:37:58.620Z,8.07
2023-10-27T01:40:30.624Z,4.63
2023-10-27T01:43:02.598Z,2.40
2023-10-27T01:45:34.661Z,2.92
2023-10-27T01:48:06.852Z,2.03
2023-10-27T01:50:38.908Z,5.28
2023-10-27T01:53:10.857Z,2.63
2023-10-27T01:55:42.748Z,2.47
2023-10-27T01:58:14.716Z,2.28
2023-10-27T02:00:46.686Z,2.97
2023-10-27T02:03:18.544Z,5.78
2023-10-27T02:05:50.466Z,1.45
2023-10-27T02:08:22.568Z,4.47
2023-10-27T02:10:54.534Z,1.98
2023-10-27T02:13:26.499Z,3.88
2023-10-27T02:15:59.323Z,3.08
2023-10-27T02:18:31.393Z,6.30
2023-10-27T02:21:03.588Z,2.95
2023-10-27T02:23:35.849Z,3.80
2023-10-27T02:26:07.896Z,3.80
2023-10-27T02:28:39.879Z,4.53
2023-10-27T02:31:12.265Z,3.30
2023-10-27T02:33:45.212Z,5.32
2023-10-27T02:36:17.356Z,3.00
2023-10-27T02:38:49.245Z,4.15
2023-10-27T02:41:21.175Z,4.50
2023-10-27T02:43:53.050Z,2.13
2023-10-27T02:46:26.909Z,5.13
2023-10-27T02:48:58.965Z,4.38
2023-10-27T02:51:31.410Z,4.22
2023-10-27T02:54:04.992Z,5.28
2023-10-27T02:56:37.021Z,5.03
2023-10-27T02:59:10.317Z,3.55
2023-10-27T03:01:46.109Z,2.60
2023-10-27T03:04:18.141Z,5.35
2023-10-27T03:06:50.128Z,5.80
2023-10-27T03:09:22.081Z,2.45
2023-10-27T03:11:54.020Z,4.07
2023-10-27T03:14:25.938Z,2.42
2023-10-27T03:16:57.837Z,3.50
2023-10-27T03:19:29.737Z,8.48
2023-10-27T03:22:03.158Z,5.05
2023-10-27T03:24:35.070Z,5.53
2023-10-27T03:27:07.056Z,4.00
2023-10-27T03:29:39.782Z,2.65
2023-10-27T03:32:11.660Z,4.90
2023-10-27T03:34:47.340Z,4.43
2023-10-27T03:39:52.299Z,2.67
2023-10-27T03:42:25.239Z,2.88
2023-10-27T03:44:57.476Z,3.53
2023-10-27T03:47:29.500Z,2.88
2023-10-27T03:50:01.426Z,2.65
2023-10-27T03:52:33.400Z,6.07
2023-10-27T03:55:06.149Z,3.45
2023-10-27T03:57:41.053Z,4.40
2023-10-27T04:00:14.969Z,3.97
2023-10-27T04:02:47.273Z,4.13
2023-10-27T04:05:19.292Z,4.40
2023-10-27T04:07:51.166Z,5.75
2023-10-27T04:10:23.153Z,5.22
2023-10-27T04:12:55.121Z,6.20
2023-10-27T04:15:28.172Z,4.10
2023-10-27T04:18:01.361Z,4.38
2023-10-27T04:20:33.514Z,2.28
2023-10-27T04:23:05.589Z,6.97
2023-10-27T04:25:39.996Z,6.05
2023-10-27T04:28:12.220Z,5.18
2023-10-27T04:30:44.114Z,5.20
2023-10-27T04:33:17.326Z,6.35
2023-10-27T04:35:51.157Z,4.22
2023-10-27T04:38:23.407Z,6.30
2023-10-27T04:40:55.486Z,2.25
2023-10-27T04:43:27.581Z,2.55
2023-10-27T04:45:59.607Z,1.95
2023-10-27T04:48:31.771Z,2.65
2023-10-27T04:51:06.700Z,3.70
2023-10-27T04:53:38.676Z,3.25
2023-10-27T04:56:10.671Z,3.45
2023-10-27T04:58:43.682Z,3.92
2023-10-27T05:01:15.764Z,4.45
2023-10-27T05:03:47.897Z,6.10
2023-10-27T05:06:19.887Z,21.77
2023-10-27T05:08:52.063Z,6.97
2023-10-27T05:11:23.973Z,11.05
2023-10-27T05:13:55.890Z,7.68
2023-10-27T05:16:27.893Z,8.73
2023-10-27T05:18:59.882Z,6.90
2023-10-27T05:21:32.157Z,7.57
2023-10-27T05:24:06.263Z,8.05
2023-10-27T05:26:38.273Z,10.20
2023-10-27T05:29:11.234Z,9.55
2023-10-27T05:31:43.683Z,8.50
2023-10-27T05:34:17.342Z,9.68
2023-10-27T05:36:49.530Z,8.80
2023-10-27T05:39:21.549Z,10.15
2023-10-27T05:41:53.786Z,7.32
2023-10-27T05:44:25.753Z,7.40
2023-10-27T05:46:59.515Z,7.13
2023-10-27T05:49:31.491Z,8.50
2023-10-27T05:52:06.406Z,8.45
2023-10-27T05:54:38.396Z,8.40
2023-10-27T05:57:10.340Z,8.55
2023-10-27T05:59:42.425Z,9.90
2023-10-27T06:02:16.034Z,10.13
2023-10-27T06:04:48.309Z,10.20
2023-10-27T06:07:20.239Z,11.45
2023-10-27T06:09:52.114Z,11.50
2023-10-27T06:12:23.960Z,12.32
2023-10-27T06:14:55.912Z,13.20
2023-10-27T06:17:27.914Z,13.25
2023-10-27T06:20:13.662Z,14.57
2023-10-27T06:22:50.060Z,13.88
2023-10-27T06:25:26.778Z,14.15
2023-10-27T06:27:58.943Z,14.57
2023-10-27T06:30:30.884Z,16.00
2023-10-27T06:33:04.491Z,16.98
2023-10-27T06:35:36.587Z,16.90
2023-10-27T06:38:08.483Z,16.40
2023-10-27T06:40:40.336Z,16.48
2023-10-27T06:43:12.273Z,16.90
2023-10-27T06:45:44.178Z,16.45
2023-10-27T06:48:16.200Z,14.73
2023-10-27T06:50:48.301Z,14.50
2023-10-27T06:53:20.224Z,13.93
2023-10-27T06:55:52.216Z,13.40
2023-10-27T06:58:24.125Z,13.05
2023-10-27T07:00:57.795Z,13.25
2023-10-27T07:03:32.197Z,12.25
2023-10-27T07:06:04.977Z,11.00
2023-10-27T07:08:38.942Z,11.68
2023-10-27T07:11:11.394Z,11.23
2023-10-27T07:13:43.542Z,9.77
2023-10-27T07:16:15.551Z,11.52
2023-10-27T07:18:47.593Z,11.70
2023-10-27T07:21:19.459Z,11.30
2023-10-27T07:23:51.316Z,12.50
2023-10-27T07:26:23.273Z,12.30
2023-10-27T07:28:55.323Z,12.18
2023-10-27T07:31:27.279Z,12.43
2023-10-27T07:33:59.793Z,13.60
2023-10-27T07:36:31.803Z,14.10
2023-10-27T07:39:04.006Z,14.52
2023-10-27T07:41:38.578Z,14.57
2023-10-27T07:44:10.619Z,14.45
2023-10-27T07:46:42.626Z,15.10
2023-10-27T07:49:14.646Z,14.35
2023-10-27T07:51:46.633Z,14.85
2023-10-27T07:54:18.803Z,14.95
2023-10-27T07:56:50.776Z,14.70
2023-10-27T07:59:22.669Z,13.82
2023-10-27T08:01:54.719Z,13.75
2023-10-27T08:04:26.984Z,13.43
2023-10-27T08:06:58.910Z,12.85
2023-10-27T08:09:31.012Z,12.93
2023-10-27T08:12:04.585Z,12.73
2023-10-27T08:14:36.694Z,13.25
2023-10-27T08:17:08.641Z,13.35
2023-10-27T08:19:41.060Z,13.20
2023-10-27T08:22:13.089Z,13.13
2023-10-27T08:24:45.200Z,12.63
2023-10-27T08:27:17.404Z,13.85
2023-10-27T08:29:49.353Z,14.68
2023-10-27T08:32:22.981Z,13.70
2023-10-27T08:34:54.902Z,13.85
2023-10-27T08:37:27.372Z,14.60
2023-10-27T08:39:59.575Z,14.45
2023-10-27T08:42:35.143Z,15.00
2023-10-27T08:45:08.199Z,16.80
2023-10-27T08:47:40.209Z,16.48
2023-10-27T08:50:12.272Z,16.27
2023-10-27T08:52:44.575Z,18.38
2023-10-27T08:55:16.825Z,17.83
2023-10-27T08:57:48.770Z,17.00
2023-10-27T09:00:20.627Z,16.42
2023-10-27T09:02:52.642Z,17.25
2023-10-27T09:05:25.780Z,15.52
2023-10-27T09:07:57.890Z,16.42
2023-10-27T09:10:30.225Z,16.92
2023-10-27T09:13:02.398Z,16.45
2023-10-27T09:15:48.173Z,15.45
2023-10-27T09:18:36.925Z,16.55
2023-10-27T09:21:09.009Z,16.95
2023-10-27T09:23:47.418Z,17.55
2023-10-27T09:26:19.410Z,17.45
2023-10-27T09:29:02.126Z,17.67
2023-10-27T09:31:37.313Z,16.90
2023-10-27T09:34:25.732Z,17.30
2023-10-27T09:36:59.900Z,19.42
2023-10-27T09:39:32.098Z,19.95
2023-10-27T09:42:06.204Z,21.67
2023-10-27T09:45:02.588Z,22.23
2023-10-27T09:47:35.801Z,20.92
2023-10-27T09:50:08.452Z,20.17
2023-10-27T09:52:42.747Z,21.02
2023-10-27T09:55:16.328Z,20.30
2023-10-27T09:57:49.160Z,19.17
2023-10-27T10:00:24.572Z,19.98
2023-10-27T10:02:58.417Z,18.10
2023-10-27T10:05:50.480Z,19.30
2023-10-27T10:08:22.464Z,17.58
2023-10-27T10:11:15.379Z,20.85
2023-10-27T10:13:49.751Z,24.00
2023-10-27T10:16:23.162Z,16.63
2023-10-27T10:18:56.758Z,16.40
2023-10-27T10:21:40.275Z,15.52
2023-10-27T10:24:13.791Z,14.38
2023-10-27T10:27:07.341Z,12.63
2023-10-27T10:29:39.666Z,11.77
2023-10-27T10:32:31.763Z,11.50
2023-10-27T10:35:23.609Z,11.00
2023-10-27T10:37:55.786Z,11.07
2023-10-27T10:40:28.334Z,10.93
2023-10-27T10:43:22.653Z,10.20
2023-10-27T10:46:00.355Z,10.98
2023-10-27T10:48:40.801Z,10.25
2023-10-27T10:51:19.622Z,9.95
2023-10-27T10:53:56.726Z,10.55
2023-10-27T10:56:28.646Z,10.77
2023-10-27T10:59:04.416Z,10.73
2023-10-27T11:01:36.537Z,10.43
2023-10-27T11:04:09.250Z,10.25
2023-10-27T11:06:41.211Z,11.02
2023-10-27T11:09:13.114Z,9.90
2023-10-27T11:11:48.359Z,10.13
2023-10-27T11:14:20.415Z,9.77
2023-10-27T11:17:00.560Z,9.95
2023-10-27T11:19:32.592Z,8.43
2023-10-27T11:22:04.674Z,8.50
2023-10-27T11:24:46.751Z,9.15
2023-10-27T11:27:28.311Z,18.50
2023-10-27T11:30:02.135Z,9.48
2023-10-27T11:32:34.110Z,9.43
2023-10-27T11:35:06.205Z,8.32
2023-10-27T11:37:38.170Z,8.05
2023-10-27T11:40:15.012Z,7.47
2023-10-27T11:42:48.704Z,6.90
2023-10-27T11:45:21.899Z,7.43
2023-10-27T11:47:53.908Z,6.78
2023-10-27T11:50:26.210Z,9.05
2023-10-27T11:52:58.297Z,6.70
2023-10-27T11:55:33.396Z,6.68
2023-10-27T11:58:05.253Z,6.15
2023-10-27T12:00:37.227Z,6.93
2023-10-27T12:03:09.112Z,6.22
2023-10-27T12:05:41.288Z,6.32
2023-10-27T12:08:13.287Z,6.97
2023-10-27T12:10:45.367Z,6.35
2023-10-27T12:13:17.340Z,7.30
2023-10-27T12:15:50.206Z,7.10
2023-10-27T12:18:22.457Z,6.68
2023-10-27T12:20:54.496Z,6.47
2023-10-27T12:23:31.055Z,6.50
2023-10-27T12:26:04.881Z,6.00
2023-10-27T12:28:36.930Z,7.38
2023-10-27T12:31:08.887Z,9.10
2023-10-27T12:33:41.766Z,5.35
2023-10-27T12:36:13.779Z,4.88
2023-10-27T12:38:45.679Z,7.05
2023-10-27T12:41:17.590Z,4.93
2023-10-27T12:43:49.569Z,6.97
2023-10-27T12:46:24.059Z,4.65
2023-10-27T12:48:56.098Z,5.55
2023-10-27T12:51:28.360Z,5.20
2023-10-27T12:54:00.653Z,6.88
2023-10-27T12:56:32.836Z,5.05
2023-10-27T12:59:05.375Z,5.18
2023-10-27T13:01:37.798Z,5.05
2023-10-27T13:04:09.977Z,5.03
2023-10-27T13:06:41.907Z,4.90
2023-10-27T13:09:13.890Z,5.05
2023-10-27T13:11:46.410Z,5.28
2023-10-27T13:14:18.333Z,5.20
2023-10-27T13:16:51.252Z,7.05
2023-10-27T13:19:23.543Z,5.25
2023-10-27T13:21:55.613Z,5.30
2023-10-27T13:24:27.590Z,7.53
2023-10-27T13:26:59.734Z,5.32
2023-10-27T13:29:32.946Z,4.32
2023-10-27T13:32:09.485Z,4.45
2023-10-27T13:34:41.464Z,4.82
2023-10-27T13:37:14.964Z,5.40
2023-10-27T13:39:48.096Z,4.68
2023-10-27T13:42:19.989Z,8.50
2023-10-27T13:44:51.986Z,4.53
2023-10-27T13:47:26.406Z,5.47
2023-10-27T13:49:58.752Z,4.32
2023-10-27T13:52:30.884Z,4.07
2023-10-27T13:55:06.005Z,3.88
2023-10-27T13:57:41.001Z,4.13
2023-10-27T14:00:13.651Z,5.25
2023-10-27T14:02:46.249Z,3.60
2023-10-27T14:05:18.556Z,3.40
2023-10-27T14:07:51.020Z,3.85
2023-10-27T14:10:23.328Z,3.97
2023-10-27T14:12:55.494Z,3.00
2023-10-27T14:15:27.781Z,3.67
2023-10-27T14:17:59.922Z,4.88
2023-10-27T14:20:32.504Z,2.85
2023-10-27T14:23:05.382Z,3.40
2023-10-27T14:25:37.903Z,5.80
2023-10-27T14:28:10.466Z,3.00
2023-10-27T14:30:44.437Z,5.57
2023-10-27T14:33:16.500Z,7.35
2023-10-27T14:35:48.878Z,3.60
2023-10-27T14:38:23.047Z,5.68
2023-10-27T14:40:56.849Z,3.42
2023-10-27T14:43:29.563Z,4.80
2023-10-27T14:46:02.855Z,4.20
2023-10-27T14:48:34.924Z,6.40
2023-10-27T14:51:09.604Z,4.57
2023-10-27T14:53:41.686Z,6.50
2023-10-27T14:56:13.778Z,5.53
2023-10-27T14:58:46.162Z,5.55
2023-10-27T15:01:18.203Z,4.93
2023-10-27T15:03:51.819Z,5.72
2023-10-27T15:06:24.113Z,6.82
2023-10-27T15:08:56.652Z,4.40
2023-10-27T15:11:28.814Z,4.68
2023-10-27T15:14:00.933Z,5.78
2023-10-27T15:16:36.697Z,5.50
2023-10-27T15:19:09.280Z,4.88
2023-10-27T15:21:41.461Z,5.22
2023-10-27T15:24:13.556Z,4.55
2023-10-27T15:26:47.391Z,7.07
2023-10-27T15:29:19.514Z,5.85
2023-10-27T15:31:51.483Z,4.78
2023-10-27T15:34:23.524Z,4.43
2023-10-27T15:36:57.528Z,4.40
2023-10-27T15:39:30.286Z,5.43
2023-10-27T15:42:02.311Z,4.63
2023-10-27T15:44:35.797Z,5.22
2023-10-27T15:47:09.127Z,7.95
2023-10-27T15:49:42.076Z,9.00
2023-10-27T15:52:14.216Z,8.77
2023-10-27T15:54:46.182Z,7.70
2023-10-27T15:57:19.599Z,7.60
2023-10-27T15:59:51.713Z,6.53
2023-10-27T16:02:23.578Z,7.93
2023-10-27T16:04:56.770Z,7.13
2023-10-27T16:07:28.812Z,6.97
2023-10-27T16:10:01.613Z,9.35
2023-10-27T16:12:33.518Z,11.85
2023-10-27T16:15:05.825Z,8.05
2023-10-27T16:17:37.853Z,10.43
2023-10-27T16:20:10.298Z,13.57
2023-10-27T16:22:42.432Z,9.45
2023-10-27T16:25:14.443Z,13.10
2023-10-27T16:27:46.510Z,13.73
2023-10-27T16:30:19.089Z,16.00
2023-10-27T16:32:51.000Z,9.68
2023-10-27T16:35:23.307Z,11.43
2023-10-27T16:37:55.321Z,8.65
2023-10-27T16:40:32.471Z,14.48
2023-10-27T16:43:04.489Z,10.88
2023-10-27T16:45:39.571Z,9.90
2023-10-27T16:48:11.529Z,11.20
2023-10-27T16:50:43.907Z,13.55
2023-10-27T16:53:15.829Z,10.20
2023-10-27T16:55:53.561Z,7.13
2023-10-27T16:58:25.485Z,7.00
2023-10-27T17:01:04.437Z,10.88
2023-10-27T17:03:37.631Z,12.45
2023-10-27T17:06:10.449Z,9.18
2023-10-27T17:08:44.471Z,8.57
2023-10-27T17:11:16.420Z,7.50
2023-10-27T17:14:06.865Z,7.57
2023-10-27T17:16:57.773Z,6.63
2023-10-27T17:19:29.824Z,7.88
2023-10-27T17:22:01.745Z,7.63
2023-10-27T17:24:34.338Z,9.68
2023-10-27T17:27:06.322Z,11.23
2023-10-27T17:29:39.257Z,9.00
2023-10-27T17:32:12.244Z,8.00
2023-10-27T17:34:46.019Z,4.68
2023-10-27T17:37:19.130Z,6.75
2023-10-27T17:39:52.219Z,4.78
2023-10-27T17:42:24.970Z,4.97
2023-10-27T17:44:56.876Z,4.90
2023-10-27T17:47:29.034Z,5.50
2023-10-27T17:50:02.070Z,3.85
2023-10-27T17:52:34.164Z,3.92
2023-10-27T17:55:07.768Z,7.32
2023-10-27T17:57:41.118Z,4.75
2023-10-27T18:00:14.141Z,6.43
2023-10-27T18:02:46.120Z,11.85
2023-10-27T18:05:18.160Z,26.23
2023-10-27T18:07:50.142Z,15.25
2023-10-27T18:10:22.517Z,7.65
2023-10-27T18:12:55.321Z,6.95
2023-10-27T18:15:27.970Z,7.25
2023-10-27T18:18:00.096Z,7.25
2023-10-27T18:20:32.010Z,10.73
2023-10-27T18:23:04.098Z,8.82
2023-10-27T18:25:36.594Z,6.28
2023-10-27T18:28:09.312Z,9.13
2023-10-27T18:30:41.338Z,5.70
2023-10-27T18:33:13.253Z,4.60
2023-10-27T18:35:46.539Z,5.05
2023-10-27T18:38:18.530Z,6.82
2023-10-27T18:40:50.482Z,43.63
2023-10-27T18:43:22.558Z,10.18
2023-10-27T18:45:57.757Z,5.05
2023-10-27T18:48:29.775Z,3.58
2023-10-27T18:51:01.916Z,5.78
2023-10-27T18:53:36.901Z,8.25
2023-10-27T18:56:09.972Z,6.32
2023-10-27T18:58:42.272Z,4.25
2023-10-27T19:01:15.498Z,3.20
2023-10-27T19:03:48.387Z,3.60
2023-10-27T19:06:21.044Z,3.58
2023-10-27T19:08:53.797Z,5.10
2023-10-27T19:11:25.737Z,7.05
2023-10-27T19:13:58.183Z,4.03
2023-10-27T19:16:30.198Z,4.55
2023-10-27T19:19:02.373Z,5.97
2023-10-27T19:21:34.312Z,4.60
2023-10-27T19:24:06.530Z,7.70
2023-10-27T19:26:39.219Z,5.60
2023-10-27T19:29:12.711Z,6.93
2023-10-27T19:31:48.299Z,6.45
2023-10-27T19:34:20.430Z,4.90
2023-10-27T19:36:52.375Z,5.75
2023-10-27T19:39:25.849Z,8.15
2023-10-27T19:42:02.333Z,9.32
2023-10-27T19:44:35.166Z,4.82
2023-10-27T19:47:08.898Z,6.55
2023-10-27T19:49:41.019Z,6.68
2023-10-27T19:52:13.621Z,8.98
2023-10-27T19:54:45.502Z,5.30
2023-10-27T19:57:17.376Z,9.15
2023-10-27T19:59:49.706Z,7.20
2023-10-27T20:02:21.736Z,10.55
2023-10-27T20:04:53.667Z,8.32
2023-10-27T20:07:25.950Z,6.32
2023-10-27T20:09:58.458Z,8.82
2023-10-27T20:12:31.547Z,8.73
2023-10-27T20:15:04.100Z,6.10
2023-10-27T20:17:40.111Z,9.52
2023-10-27T20:20:20.037Z,5.85
2023-10-27T20:25:26.618Z,9.90
2023-10-27T20:27:59.199Z,10.18
2023-10-27T20:30:31.149Z,7.63
2023-10-27T20:33:03.160Z,11.93
2023-10-27T20:35:35.895Z,8.13
2023-10-27T20:38:08.689Z,7.85
2023-10-27T20:40:40.902Z,6.65
2023-10-27T20:43:12.900Z,8.18
2023-10-27T20:45:44.887Z,8.65
2023-10-27T20:48:17.749Z,9.23
2023-10-27T20:50:49.834Z,9.82
2023-10-27T20:53:23.385Z,9.45
2023-10-27T20:55:56.246Z,11.60
2023-10-27T20:58:28.429Z,8.07
2023-10-27T21:01:08.323Z,8.00
2023-10-27T21:03:40.368Z,10.32
2023-10-27T21:06:12.326Z,10.32
2023-10-27T21:08:44.471Z,8.23
2023-10-27T21:11:16.400Z,11.98
2023-10-27T21:13:50.192Z,10.50
2023-10-27T21:16:22.181Z,9.23
2023-10-27T21:18:54.051Z,10.40
2023-10-27T21:21:26.259Z,9.45
2023-10-27T21:23:58.194Z,8.07
2023-10-27T21:26:30.188Z,10.75
2023-10-27T21:29:02.149Z,8.15
2023-10-27T21:31:34.180Z,8.23
2023-10-27T21:34:09.605Z,10.07
2023-10-27T21:36:41.488Z,8.93
2023-10-27T21:39:13.358Z,13.52
2023-10-27T21:41:45.329Z,12.55
2023-10-27T21:44:17.441Z,10.48
2023-10-27T21:46:49.628Z,12.82
2023-10-27T21:49:21.697Z,9.75
2023-10-27T21:51:53.628Z,9.50
2023-10-27T21:54:25.557Z,8.20
2023-10-27T21:56:57.455Z,13.55
2023-10-27T21:59:29.537Z,13.85
2023-10-27T22:02:01.860Z,10.43
2023-10-27T22:04:34.634Z,11.45
2023-10-27T22:07:07.988Z,11.10
2023-10-27T22:09:39.889Z,11.48
2023-10-27T22:12:11.864Z,10.18
2023-10-27T22:14:45.446Z,9.18
2023-10-27T22:17:17.421Z,10.75
2023-10-27T22:19:49.501Z,11.82
2023-10-27T22:22:21.438Z,9.90
2023-10-27T22:24:54.096Z,11.02
2023-10-27T22:27:25.994Z,8.55
2023-10-27T22:29:58.554Z,10.82
2023-10-27T22:32:30.993Z,10.02
2023-10-27T22:35:04.016Z,11.25
2023-10-27T22:37:35.926Z,9.20
2023-10-27T22:40:08.410Z,11.60
2023-10-27T22:42:44.142Z,12.80
2023-10-27T22:45:16.178Z,9.15
2023-10-27T22:47:52.226Z,10.15
2023-10-27T22:50:24.193Z,12.98
2023-10-27T22:52:56.145Z,12.50
2023-10-27T22:55:28.146Z,11.13
2023-10-27T22:57:59.997Z,12.57
2023-10-27T23:00:32.926Z,13.73
2023-10-27T23:03:05.797Z,9.40
2023-10-27T23:05:39.767Z,11.05
2023-10-27T23:08:11.706Z,12.50
2023-10-27T23:10:43.676Z,10.57
2023-10-27T23:13:17.248Z,7.63
2023-10-27T23:15:49.238Z,10.07
2023-10-27T23:18:21.138Z,9.00
2023-10-27T23:20:53.732Z,12.43
2023-10-27T23:23:25.720Z,7.45
2023-10-27T23:25:58.142Z,9.77
2023-10-27T23:28:30.092Z,11.23
2023-10-27T23:31:09.088Z,8.27
2023-10-27T23:33:41.146Z,10.00
2023-10-27T23:36:17.649Z,10.02
2023-10-27T23:38:49.531Z,8.63
2023-10-27T23:41:21.434Z,7.35
2023-10-27T23:43:53.470Z,10.50
2023-10-27T23:46:25.968Z,11.10
2023-10-27T23:48:57.972Z,8.38
2023-10-27T23:51:30.004Z,8.20
2023-10-27T23:54:03.531Z,7.35
2023-10-27T23:56:35.422Z,6.97
2023-10-27T23:59:07.342Z,7.07
